createdAt,value
2023-04-14T00:01:34.438Z,100667.72
2023-04-14T00:06:39.713Z,100678.00
2023-04-14T00:11:43.440Z,100678.25
2023-04-14T00:16:47.172Z,100667.16
2023-04-14T00:21:52.522Z,100666.34
2023-04-14T00:26:56.228Z,100661.22
2023-04-14T00:31:59.852Z,100671.19
2023-04-14T00:37:05.139Z,100670.41
2023-04-14T00:42:08.768Z,100660.69
2023-04-14T00:47:12.584Z,100673.94
2023-04-14T00:52:17.938Z,100666.63
2023-04-14T00:57:21.734Z,100659.72
2023-04-14T01:02:26.866Z,100668.81
2023-04-14T01:07:33.299Z,100665.22
2023-04-14T01:12:56.086Z,100663.06
2023-04-14T01:18:06.201Z,100668.41
2023-04-14T01:23:16.629Z,100666.00
2023-04-14T01:28:38.386Z,100660.38
2023-04-14T01:33:49.544Z,100658.53
2023-04-14T01:38:55.487Z,100654.19
2023-04-14T01:44:02.469Z,100653.97
2023-04-14T01:49:09.372Z,100653.41
2023-04-14T01:54:13.978Z,100664.56
2023-04-14T01:59:19.862Z,100677.34
2023-04-14T02:04:29.432Z,100683.63
2023-04-14T02:09:34.936Z,100687.59
2023-04-14T02:14:41.586Z,100692.56
2023-04-14T02:19:48.569Z,100712.41
2023-04-14T02:24:52.272Z,100707.66
2023-04-14T02:29:57.411Z,100715.88
2023-04-14T02:35:07.140Z,100716.31
2023-04-14T02:40:16.261Z,100705.28
2023-04-14T02:45:23.884Z,100709.44
2023-04-14T02:50:31.303Z,100715.31
2023-04-14T02:55:35.655Z,100718.50
2023-04-14T03:00:40.860Z,100720.66
2023-04-14T03:05:48.849Z,100726.19
2023-04-14T03:10:55.182Z,100746.03
2023-04-14T03:15:59.302Z,100727.09
2023-04-14T03:21:06.041Z,100738.84
2023-04-14T03:26:10.667Z,100744.19
2023-04-14T03:31:15.812Z,100749.91
2023-04-14T03:36:22.063Z,100751.22
2023-04-14T03:41:26.886Z,100742.78
2023-04-14T03:46:30.576Z,100754.09
2023-04-14T03:51:36.900Z,100762.75
2023-04-14T03:56:41.746Z,100757.41
2023-04-14T04:01:47.252Z,100762.81
2023-04-14T04:06:53.496Z,100772.72
2023-04-14T04:11:58.679Z,100780.84
2023-04-14T04:17:06.632Z,100796.06
2023-04-14T04:22:15.265Z,100801.78
2023-04-14T04:27:27.767Z,100802.56
2023-04-14T04:32:32.236Z,100811.41
2023-04-14T04:37:38.567Z,100816.09
2023-04-14T04:42:42.767Z,100828.56
2023-04-14T04:47:46.488Z,100834.84
2023-04-14T04:52:51.760Z,100829.63
2023-04-14T04:57:55.372Z,100840.31
2023-04-14T05:02:59.237Z,100843.13
2023-04-14T05:08:05.004Z,100854.31
2023-04-14T05:13:08.654Z,100862.47
2023-04-14T05:18:12.413Z,100861.81
2023-04-14T05:23:17.695Z,100858.41
2023-04-14T05:28:21.309Z,100861.41
2023-04-14T05:33:24.929Z,100864.25
2023-04-14T05:38:30.244Z,100881.09
2023-04-14T05:43:33.822Z,100865.03
2023-04-14T05:48:37.432Z,100877.38
2023-04-14T05:53:42.741Z,100888.25
2023-04-14T05:58:46.379Z,100872.75
2023-04-14T06:03:50.212Z,100880.38
2023-04-14T06:08:55.710Z,100883.19
2023-04-14T06:13:59.831Z,100892.06
2023-04-14T06:19:03.842Z,100909.44
2023-04-14T06:24:10.907Z,100914.09
2023-04-14T06:29:14.588Z,100907.38
2023-04-14T06:34:18.210Z,100895.25
2023-04-14T06:39:23.532Z,100901.31
2023-04-14T06:44:27.864Z,100896.09
2023-04-14T06:49:31.498Z,100897.13
2023-04-14T06:54:36.706Z,100900.44
2023-04-14T06:59:41.019Z,100904.94
2023-04-14T07:04:44.729Z,100911.88
2023-04-14T07:09:50.043Z,100906.78
2023-04-14T07:14:53.749Z,100901.63
2023-04-14T07:19:57.405Z,100904.34
2023-04-14T07:25:03.592Z,100913.16
2023-04-14T07:30:07.018Z,100913.50
2023-04-14T07:35:11.576Z,100924.50
2023-04-14T07:40:17.024Z,100917.31
2023-04-14T07:45:20.680Z,100927.78
2023-04-14T07:50:24.399Z,100924.91
2023-04-14T07:55:29.713Z,100915.13
2023-04-14T08:00:33.343Z,100918.72
2023-04-14T08:05:37.103Z,100930.53
2023-04-14T08:10:42.458Z,100924.72
2023-04-14T08:15:46.776Z,100927.06
2023-04-14T08:20:50.407Z,100924.22
2023-04-14T08:25:55.641Z,100920.03
2023-04-14T08:30:59.395Z,100921.09
2023-04-14T08:36:03.063Z,100926.56
2023-04-14T08:41:09.551Z,100925.44
2023-04-14T08:46:15.036Z,100923.78
2023-04-14T08:51:31.092Z,100917.00
2023-04-14T08:56:39.055Z,100925.59
2023-04-14T09:01:42.731Z,100926.31
2023-04-14T09:06:46.604Z,100908.13
2023-04-14T09:11:53.150Z,100897.41
2023-04-14T09:16:57.212Z,100902.59
2023-04-14T09:22:01.080Z,100894.50
2023-04-14T09:27:06.999Z,100887.63
2023-04-14T09:32:10.616Z,100888.53
2023-04-14T09:37:14.226Z,100893.88
2023-04-14T09:42:19.952Z,100891.34
2023-04-14T09:47:24.432Z,100887.09
2023-04-14T09:52:41.538Z,100874.06
2023-04-14T09:57:48.006Z,100872.28
2023-04-14T10:02:53.354Z,100869.59
2023-04-14T10:08:02.310Z,100862.00
2023-04-14T10:13:07.641Z,100855.06
2023-04-14T10:18:11.336Z,100852.81
2023-04-14T10:23:16.028Z,100852.31
2023-04-14T10:28:22.134Z,100856.09
2023-04-14T10:33:26.060Z,100858.28
2023-04-14T10:38:43.319Z,100859.34
2023-04-14T10:43:48.725Z,100868.84
2023-04-14T10:48:53.844Z,100855.81
2023-04-14T10:53:57.547Z,100867.94
2023-04-14T10:59:04.099Z,100857.50
2023-04-14T11:04:18.881Z,100865.19
2023-04-14T11:09:34.846Z,100866.94
2023-04-14T11:14:40.221Z,100876.63
2023-04-14T11:19:43.940Z,100876.91
2023-04-14T11:24:47.847Z,100877.84
2023-04-14T11:29:55.846Z,100877.00
2023-04-14T11:35:09.750Z,100877.81
2023-04-14T11:40:15.012Z,100885.75
2023-04-14T11:45:20.520Z,100883.16
2023-04-14T11:50:24.296Z,100894.50
2023-04-14T11:55:28.553Z,100905.81
2023-04-14T12:00:34.035Z,100907.50
2023-04-14T12:05:38.379Z,100907.59
2023-04-14T12:10:42.631Z,100907.69
2023-04-14T12:15:48.217Z,100902.47
2023-04-14T12:20:55.130Z,100907.72
2023-04-14T12:25:58.787Z,100910.25
2023-04-14T12:31:05.391Z,100889.63
2023-04-14T12:36:14.343Z,100900.09
2023-04-14T12:41:23.556Z,100910.41
2023-04-14T12:46:29.689Z,100908.75
2023-04-14T12:51:40.158Z,100906.09
2023-04-14T12:56:43.758Z,100896.59
2023-04-14T13:01:49.164Z,100898.34
2023-04-14T13:06:52.785Z,100904.41
2023-04-14T13:11:56.401Z,100907.94
2023-04-14T13:17:01.708Z,100914.03
2023-04-14T13:22:05.341Z,100922.72
2023-04-14T13:27:09.011Z,100928.00
2023-04-14T13:32:14.496Z,100937.53
2023-04-14T13:37:18.118Z,100937.50
2023-04-14T13:42:21.718Z,100940.09
2023-04-14T13:47:27.074Z,100950.53
2023-04-14T13:52:30.691Z,100951.41
2023-04-14T13:57:34.421Z,100966.97
2023-04-14T14:02:40.583Z,100960.81
2023-04-14T14:07:44.620Z,100961.69
2023-04-14T14:12:48.240Z,100961.59
2023-04-14T14:17:53.602Z,100971.84
2023-04-14T14:22:57.322Z,100975.03
2023-04-14T14:28:00.946Z,100988.56
2023-04-14T14:33:07.252Z,100995.03
2023-04-14T14:38:10.155Z,100994.81
2023-04-14T14:43:14.939Z,101018.88
2023-04-14T14:48:20.225Z,101016.44
2023-04-14T14:53:23.866Z,101020.84
2023-04-14T14:58:27.517Z,101040.09
2023-04-14T15:03:32.997Z,101043.59
2023-04-14T15:08:36.712Z,101052.31
2023-04-14T15:13:40.365Z,101059.13
2023-04-14T15:18:45.651Z,101060.09
2023-04-14T15:23:49.304Z,101071.63
2023-04-14T15:28:52.931Z,101074.94
2023-04-14T15:33:58.892Z,101076.25
2023-04-14T15:39:02.558Z,101076.28
2023-04-14T15:44:06.341Z,101083.78
2023-04-14T15:49:11.600Z,101076.47
2023-04-14T15:54:15.234Z,101071.88
2023-04-14T15:59:18.941Z,101078.03
2023-04-14T16:04:24.354Z,101088.25
2023-04-14T16:09:28.154Z,101081.34
2023-04-14T16:14:32.657Z,101088.41
2023-04-14T16:19:38.061Z,101099.09
2023-04-14T16:24:41.799Z,101105.66
2023-04-14T16:29:45.403Z,101102.31
2023-04-14T16:34:50.902Z,101105.19
2023-04-14T16:39:57.854Z,101108.22
2023-04-14T16:45:01.544Z,101105.03
2023-04-14T16:50:07.720Z,101125.44
2023-04-14T16:55:12.190Z,101132.91
2023-04-14T17:00:16.555Z,101136.88
2023-04-14T17:05:22.156Z,101125.66
2023-04-14T17:10:26.782Z,101137.91
2023-04-14T17:15:30.443Z,101139.81
2023-04-14T17:20:35.705Z,101144.78
2023-04-14T17:25:39.353Z,101144.22
2023-04-14T17:30:43.038Z,101148.41
2023-04-14T17:35:49.416Z,101155.66
2023-04-14T17:40:54.361Z,101157.69
2023-04-14T17:45:58.161Z,101155.59
2023-04-14T17:51:04.228Z,101153.13
2023-04-14T17:56:09.348Z,101164.22
2023-04-14T18:01:15.426Z,101155.22
2023-04-14T18:06:20.686Z,101158.44
2023-04-14T18:11:24.480Z,101167.44
2023-04-14T18:16:28.220Z,101172.88
2023-04-14T18:21:33.473Z,101182.56
2023-04-14T18:26:37.102Z,101191.91
2023-04-14T18:31:40.813Z,101189.03
2023-04-14T18:36:46.148Z,101182.44
2023-04-14T18:41:49.826Z,101190.38
2023-04-14T18:46:53.513Z,101197.09
2023-04-14T18:51:58.834Z,101181.59
2023-04-14T18:57:02.449Z,101181.94
2023-04-14T19:02:06.194Z,101173.66
2023-04-14T19:07:11.624Z,101182.78
2023-04-14T19:12:25.418Z,101184.84
2023-04-14T19:17:34.506Z,101182.50
2023-04-14T19:22:40.549Z,101173.69
2023-04-14T19:27:44.185Z,101168.63
2023-04-14T19:32:47.821Z,101172.78
2023-04-14T19:37:53.090Z,101175.03
2023-04-14T19:42:57.470Z,101173.22
2023-04-14T19:48:09.904Z,101170.25
2023-04-14T19:53:25.569Z,101166.28
2023-04-14T19:58:29.334Z,101173.97
2023-04-14T20:03:34.476Z,101168.69
2023-04-14T20:08:39.624Z,101166.38
2023-04-14T20:13:43.454Z,101160.31
2023-04-14T20:18:47.053Z,101155.78
2023-04-14T20:23:52.372Z,101156.72
2023-04-14T20:28:56.069Z,101152.13
2023-04-14T20:33:59.731Z,101153.47
2023-04-14T20:39:05.916Z,101152.25
2023-04-14T20:44:09.741Z,101152.72
2023-04-14T20:49:13.365Z,101149.00
2023-04-14T20:54:18.957Z,101151.38
2023-04-14T20:59:22.570Z,101155.75
2023-04-14T21:04:26.284Z,101148.22
2023-04-14T21:09:31.550Z,101153.22
2023-04-14T21:15:40.642Z,101159.13
2023-04-14T21:19:58.822Z,101153.78
2023-04-14T21:25:04.197Z,101157.31
2023-04-14T21:30:08.951Z,101143.22
2023-04-14T21:35:12.620Z,101137.78
2023-04-14T21:40:17.889Z,101140.03
2023-04-14T21:45:21.475Z,101139.13
2023-04-14T21:50:25.081Z,101131.94
2023-04-14T21:55:30.617Z,101127.56
2023-04-14T22:00:34.264Z,101124.81
2023-04-14T22:05:37.889Z,101114.53
2023-04-14T22:10:44.133Z,101118.13
2023-04-14T22:15:47.879Z,101122.66
2023-04-14T22:20:51.543Z,101120.63
2023-04-14T22:25:56.809Z,101115.81
2023-04-14T22:31:00.453Z,101114.53
2023-04-14T22:36:06.493Z,101116.81
2023-04-14T22:41:11.767Z,101117.25
2023-04-14T22:46:17.428Z,101115.69
2023-04-14T22:51:21.062Z,101112.03
2023-04-14T22:56:27.140Z,101115.97
2023-04-14T23:01:30.802Z,101110.84
2023-04-14T23:06:35.319Z,101111.41
2023-04-14T23:11:40.812Z,101109.31
2023-04-14T23:16:44.579Z,101107.19
2023-04-14T23:21:49.715Z,101101.13
2023-04-14T23:26:56.535Z,101109.84
2023-04-14T23:32:00.169Z,101108.78
2023-04-14T23:37:03.893Z,101112.47
2023-04-14T23:42:09.179Z,101111.34
2023-04-14T23:47:12.840Z,101115.09
2023-04-14T23:52:16.577Z,101110.50
2023-04-14T23:57:22.291Z,101117.06
